KGJT

Grand Junction Regional Airport

Grand Junction, Colorado, USA
METAR KGJT 271153Z 12009KT 10SM CLR 16/M08 A2988 RMK AO2 SLP046 T01561083 10228 20144 51021
Observed Flight Rules
May-27 @ 11:53 UTC (11 minutes ago) Visual Flight Rules
Wind Visibility Clouds
120° at 9 knots 10 miles
  • Clear skies
Temperatures Readings
Current 16°C / 61°F
Dewpoint -8°C / 18°F
Humidity 19%
Altimeter 29.88" Hg
Pressure 1004.6 hPa
Elevation 1475
METAR KGJT 271153Z 12009KT 10SM CLR 16/M08 A2988 RMK AO2 SLP046 T01561083 10228 20144 51021
Observed Flight Rules
May-27 @ 11:53 UTC
(11 minutes ago)
VFR
Wind Visibility
120° at 9 knots 10 miles
Clouds
  • Clear skies
Temperature Dewpoint
16°C / 61°F -8°C / 18°F
Humidity Altimeter Pressure
19% 29.88" Hg 1004.6 hPa